Latest Coastal Weather Observations for Melbourne (Olympic Park)

IDV60701

Issued at 7:05 am EST Monday 21 April 2014 (issued every 10 minutes, with the page automatically refreshed every 10 minutes)

About coastal observations | Map of coastal stations | Coastal observations for VIC | Marine services | Other Formats
Station Details ID: 086338 Name: MELBOURNE (OLYMPIC PARK) Lat: -37.83 Lon: 144.98 Height: 7.53 m
Data from the previous 72 hours. | See also: Recent months for locations in Victoria
Date/Time
EST
Temp

°C
Wind Pressure Rain
since 9am
mm
Weather Cloud Vis
km
Sea
Height
m
Swell
Dir
 
Speed
knots
Gust
knots
hPa Trend Height
m
Period
s
Dir
21/07:00am 12.7 N 10 15 1018.7 - 0.0 - - - - - - -
21/06:30am 12.6 N 6 10 1018.7 - 0.0 - - - - - - -
21/06:00am 12.4 N 7 10 1018.4 - 0.0 - - - - - - -
21/05:30am 12.9 N 9 13 1018.3 - 0.0 - - - - - - -
21/05:00am 13.1 N 8 14 1018.3 - 0.0 - - - - - - -
21/04:30am 13.0 N 9 14 1018.0 - 0.0 - - - - - - -
21/04:00am 12.4 NNE 7 9 1018.0 - 0.0 - - - - - - -
21/03:30am 12.8 N 8 11 1018.0 - 0.0 - - - - - - -
21/03:00am 13.0 N 9 14 1017.8 - 0.0 - - - - - - -
21/02:30am 13.6 N 9 14 1017.9 - 0.0 - - - - - - -
21/02:00am 13.7 N 9 16 1018.0 - 0.0 - - - - - - -
21/01:30am 14.1 N 10 14 1018.0 - 0.0 - - - - - - -
21/01:00am 14.5 N 10 15 1018.1 - 0.0 - - - - - - -
21/12:30am 14.1 N 7 12 1018.0 - 0.0 - - - - - - -
21/12:00am 13.8 NNE 7 11 1018.0 - 0.0 - - - - - - -
 
Date/Time
EST
Temp

°C
Wind Pressure Rain
since 9am
mm
Weather Cloud Vis
km
Sea
Height
m
Swell
Dir
 
Speed
knots
Gust
knots
hPa Trend Height
m
Period
s
Dir
20/11:30pm 13.9 N 7 10 1018.1 - 0.0 - - - - - - -
20/11:00pm 14.3 N 7 13 1018.2 - 0.0 - - - - - - -
20/10:30pm 14.7 N 7 14 1018.3 - 0.0 - - - - - - -
20/10:00pm 14.8 N 5 8 1018.4 - 0.0 - - - - - - -
20/09:30pm 15.1 N 5 8 1018.2 - 0.0 - - - - - - -
20/09:00pm 15.1 N 5 7 1018.2 - 0.0 - - - - - - -
20/08:30pm 15.3 N 5 9 1018.1 - 0.0 - - - - - - -
20/08:00pm 15.6 N 6 9 1018.0 - 0.0 - - - - - - -
20/07:30pm 15.5 N 7 9 1017.8 - 0.0 - - - - - - -
20/07:00pm 15.9 N 8 11 1017.5 - 0.0 - - - - - - -
20/06:30pm 16.2 N 7 9 1017.3 - 0.0 - - - - - - -
20/06:00pm 16.8 N 6 9 1016.9 - 0.0 - - - - - - -
20/05:30pm 18.0 N 5 7 1016.5 - 0.0 - - - - - - -
20/05:00pm 18.5 N 4 6 1016.4 - 0.0 - - - - - - -
20/04:30pm 18.5 N 5 7 1016.3 - 0.0 - - - - - - -
20/04:00pm 18.2 NW 4 10 1016.3 - 0.0 - - - - - - -
20/03:30pm 18.1 WNW 4 8 1016.3 - 0.0 - - - - - - -
20/03:00pm 17.9 W 3 8 1016.3 - 0.0 - - - - - - -
20/02:30pm 17.9 WNW 6 11 1016.2 - 0.0 - - - - - - -
20/02:00pm 17.7 WNW 5 8 1016.1 - 0.0 - - - - - - -
20/01:30pm 17.9 NW 6 14 1016.3 - 0.0 - - - - - - -
20/01:00pm 17.6 NW 7 12 1016.5 - 0.0 - - - - - - -
20/12:30pm 17.2 W 7 11 1016.9 - 0.0 - - - - - - -
20/12:00pm 17.5 NNW 7 11 1017.2 - 0.0 - - - - - - -
20/11:30am 17.5 NW 7 14 1017.5 - 0.0 - - - - - - -
20/11:00am 16.5 NW 9 15 1017.8 - 0.0 - - - - - - -
20/10:30am 16.9 NW 6 10 1018.0 - 0.0 - - - - - - -
20/10:00am 15.7 NW 5 11 1018.1 - 0.0 - - - - - - -
20/09:30am 15.0 NNW 4 6 1018.2 - 0.0 - - - - - - -
20/09:00am 14.1 N 5 8 1018.2 - 0.0 - - - - - - -
20/08:30am 13.8 NNW 4 6 1018.1 - 0.0 - - - - - - -
20/08:00am 13.4 N 5 7 1017.9 - 0.0 - - - - - - -
20/07:30am 13.1 N 5 7 1017.6 - 0.0 - - - - - - -
20/07:00am 13.0 NNW 3 5 1017.5 - 0.0 - - - - - - -
20/06:30am 12.8 CALM 0 4 1017.3 - 0.0 - - - - - - -
20/06:00am 12.6 CALM 0 2 1017.1 - 0.0 - - - - - - -
20/05:30am 13.1 NNW 2 5 1017.0 - 0.0 - - - - - - -
20/05:00am 12.9 N 4 6 1016.8 - 0.0 - - - - - - -
20/04:30am 13.4 N 4 6 1016.7 - 0.0 - - - - - - -
20/04:00am 13.4 N 6 7 1016.7 - 0.0 - - - - - - -
20/03:30am 13.5 N 3 5 1016.7 - 0.0 - - - - - - -
20/03:00am 13.7 N 4 6 1016.7 - 0.0 - - - - - - -
20/02:30am 13.9 NW 5 6 1017.0 - 0.0 - - - - - - -
20/02:00am 13.6 NW 1 5 1017.2 - 0.0 - - - - - - -
20/01:30am 13.0 CALM 0 3 1017.3 - 0.0 - - - - - - -
20/01:00am 13.1 CALM 0 3 1017.3 - 0.0 - - - - - - -
20/12:30am 13.4 N 2 5 1017.4 - 0.0 - - - - - - -
20/12:00am 13.1 NNE 3 5 1017.6 - 0.0 - - - - - - -
 
Date/Time
EST
Temp

°C
Wind Pressure Rain
since 9am
mm
Weather Cloud Vis
km
Sea
Height
m
Swell
Dir
 
Speed
knots
Gust
knots
hPa Trend Height
m
Period
s
Dir
19/11:30pm 13.1 N 3 5 1017.8 - 0.0 - - - - - - -
19/11:00pm 13.0 NNE 5 6 1018.2 - 0.0 - - - - - - -
19/10:30pm 13.1 NNE 4 6 1018.3 - 0.0 - - - - - - -
19/10:00pm 13.2 NNE 4 6 1018.4 - 0.0 - - - - - - -
19/09:30pm 13.3 N 3 6 1018.5 - 0.0 - - - - - - -
19/09:00pm 13.7 NNE 4 5 1018.6 - 0.0 - - - - - - -
19/08:30pm 14.1 E 1 4 1018.6 - 0.0 - - - - - - -
19/08:00pm 14.0 CALM 0 0 1018.8 - 0.0 - - - - - - -
19/07:30pm 14.2 CALM 0 3 1018.7 - 0.0 - - - - - - -
19/07:00pm 14.1 SSE 1 4 1018.7 - 0.0 - - - - - - -
19/06:30pm 13.7 CALM 0 5 1018.6 - 0.0 - - - - - - -
19/06:00pm 14.1 S 1 6 1018.5 - 0.0 - - - - - - -
19/05:30pm 14.4 SSW 1 4 1018.5 - 0.0 - - - - - - -
19/05:00pm 14.6 SSE 5 8 1018.6 - 0.0 - - - - - - -
19/04:30pm 14.7 S 5 7 1018.7 - 0.0 - - - - - - -
19/04:00pm 15.0 S 7 12 1018.7 - 0.0 - - - - - - -
19/03:30pm 16.9 S 6 11 1018.6 - 0.0 - - - - - - -
19/03:00pm 15.7 S 5 11 1018.7 - 0.0 - - - - - - -
19/02:30pm 15.4 S 5 8 1018.8 - 0.0 - - - - - - -
19/02:00pm 15.9 SSE 5 9 1019.0 - 0.0 - - - - - - -
19/01:30pm 15.3 SSE 5 8 1019.1 - 0.0 - - - - - - -
19/01:00pm 15.3 S 8 13 1019.5 - 0.0 - - - - - - -
19/12:30pm 16.0 SSW 7 13 1019.9 - 0.0 - - - - - - -
19/12:00pm 15.5 SW 6 12 1020.2 - 0.0 - - - - - - -
19/11:30am 14.9 SW 6 10 1020.5 - 0.0 - - - - - - -
19/11:00am 14.2 SSW 6 13 1020.7 - 0.0 - - - - - - -
19/10:30am 14.5 SW 7 15 1020.7 - 0.0 - - - - - - -
19/10:00am 14.3 SW 4 9 1020.6 - 0.0 - - - - - - -
19/09:30am 13.8 WSW 5 8 1020.6 - 0.0 - - - - - - -
19/09:00am 13.2 W 4 8 1020.6 - 2.2 - - - - - - -
19/08:30am 12.5 SW 5 13 1020.6 - 2.2 - - - - - - -
19/08:00am 12.7 W 5 9 1020.3 - 2.2 - - - - - - -
19/07:30am 12.4 W 5 7 1019.8 - 2.2 - - - - - - -
19/07:00am 12.3 WNW 5 7 1019.5 - 2.2 - - - - - - -
19/06:30am 12.5 WNW 4 8 1019.4 - 2.2 - - - - - - -
19/06:00am 12.6 W 3 6 1019.2 - 2.2 - - - - - - -
19/05:30am 12.6 W 5 11 1019.0 - 2.2 - - - - - - -
19/05:00am 12.6 WSW 4 8 1018.9 - 2.2 - - - - - - -
19/04:30am 12.6 WNW 5 8 1019.0 - 2.2 - - - - - - -
19/04:00am 12.3 W 5 10 1018.9 - 2.2 - - - - - - -
19/03:30am 12.4 W 4 8 1019.0 - 2.2 - - - - - - -
19/03:00am 12.4 WNW 4 7 1019.0 - 2.2 - - - - - - -
19/02:30am 12.2 WNW 5 9 1019.3 - 2.2 - - - - - - -
19/02:00am 12.1 W 4 8 1019.6 - 2.2 - - - - - - -
19/01:30am 11.9 WNW 3 6 1019.8 - 2.2 - - - - - - -
19/01:00am 12.3 W 5 9 1019.9 - 2.2 - - - - - - -
19/12:30am 12.5 W 6 11 1019.9 - 2.2 - - - - - - -
19/12:00am 12.3 W 6 9 1019.9 - 2.2 - - - - - - -
 
Date/Time
EST
Temp

°C
Wind Pressure Rain
since 9am
mm
Weather Cloud Vis
km
Sea
Height
m
Swell
Dir
 
Speed
knots
Gust
knots
hPa Trend Height
m
Period
s
Dir
18/11:30pm 12.4 W 5 8 1019.8 - 2.2 - - - - - - -
18/11:00pm 12.9 W 4 8 1020.0 - 2.2 - - - - - - -
18/10:30pm 12.6 W 6 11 1020.2 - 2.2 - - - - - - -
18/10:00pm 13.0 WNW 6 11 1020.2 - 2.2 - - - - - - -
18/09:30pm 13.3 W 4 7 1020.1 - 2.2 - - - - - - -
18/09:00pm 13.5 W 5 9 1019.8 - 2.2 - - - - - - -
18/08:30pm 13.7 W 5 11 1019.6 - 2.2 - - - - - - -
18/08:00pm 14.4 W 6 10 1019.5 - 2.2 - - - - - - -
18/07:30pm 14.8 WSW 5 12 1019.2 - 2.2 - - - - - - -
18/07:00pm 15.2 SSW 6 12 1018.9 - 2.2 - - - - - - -
18/06:30pm 15.5 SSW 7 14 1018.6 - 2.2 - - - - - - -
18/06:00pm 15.5 S 10 17 1018.5 - 2.2 - - - - - - -
18/05:30pm 15.8 S 8 13 1018.3 - 2.2 - - - - - - -
18/05:00pm 16.2 S 9 16 1018.0 - 2.2 - - - - - - -
18/04:30pm 16.0 S 9 17 1017.8 - 2.2 - - - - - - -
18/04:00pm 16.4 S 10 20 1017.4 - 2.2 - - - - - - -
18/03:30pm 16.3 S 9 16 1017.3 - 2.2 - - - - - - -
18/03:00pm 17.1 SSW 10 19 1017.1 - 2.2 - - - - - - -
18/02:30pm 17.5 SSW 9 17 1016.9 - 2.2 - - - - - - -
18/02:00pm 16.3 S 11 17 1016.7 - 2.2 - - - - - - -
18/01:30pm 16.3 SSW 6 12 1016.4 - 2.2 - - - - - - -
18/01:00pm 15.4 SSW 8 16 1016.7 - 2.2 - - - - - - -
18/12:30pm 14.6 SSW 7 15 1016.6 - 1.6 - - - - - - -
18/12:00pm 14.5 SSW 9 20 1016.5 - 1.0 - - - - - - -
18/11:30am 15.6 W 5 12 1016.2 - 0.6 - - - - - - -
18/11:00am 15.1 W 8 17 1016.0 - 0.2 - - - - - - -
18/10:36am 17.6 W 15 23 1015.9 - 0.0 - - - - - - -
18/10:30am 18.6 NW 4 9 1015.2 - 0.0 - - - - - - -
18/10:00am 17.8 NW 5 10 1015.0 - 0.0 - - - - - - -
18/09:30am 18.0 WNW 3 7 1015.2 - 0.0 - - - - - - -
18/09:00am 17.8 N 5 8 1014.9 - 0.0 - - - - - - -
18/08:30am 16.5 E 1 3 1015.1 - 0.0 - - - - - - -
18/08:00am 16.0 NE 4 7 1014.9 - 0.0 - - - - - - -
18/07:30am 15.8 N 7 10 1014.8 - 0.0 - - - - - - -

Other Formats:

Comma delimited format used in spreadsheet applications
http://www.bom.gov.au/fwo/IDV60701/IDV60701.95936.axf

JavaScript Object Notation format (JSON) in row-major order
http://www.bom.gov.au/fwo/IDV60701/IDV60701.95936.json